createdAt,value
2018-05-25T00:00:54.635Z,22.40
2018-05-25T00:01:54.856Z,22.70
2018-05-25T00:02:55.055Z,22.80
2018-05-25T00:03:55.262Z,22.80
2018-05-25T00:04:55.472Z,21.90
2018-05-25T00:05:55.697Z,21.20
2018-05-25T00:06:55.912Z,21.50
2018-05-25T00:07:56.090Z,21.80
2018-05-25T00:08:56.286Z,20.10
2018-05-25T00:09:56.472Z,21.30
2018-05-25T00:10:56.672Z,23.10
2018-05-25T00:11:56.910Z,20.60
2018-05-25T00:12:57.092Z,20.50
2018-05-25T00:13:57.302Z,19.90
2018-05-25T00:14:57.508Z,20.10
2018-05-25T00:17:29.421Z,20.00
2018-05-25T00:18:29.597Z,19.60
2018-05-25T00:19:29.807Z,18.80
2018-05-25T00:20:30.007Z,19.60
2018-05-25T00:21:30.227Z,18.20
2018-05-25T00:22:30.398Z,19.50
2018-05-25T00:23:30.583Z,19.70
2018-05-25T00:24:30.930Z,19.30
2018-05-25T00:25:31.012Z,18.80
2018-05-25T00:26:31.202Z,18.20
2018-05-25T00:27:31.414Z,18.00
2018-05-25T00:28:31.631Z,18.90
2018-05-25T00:29:31.841Z,18.40
2018-05-25T00:30:32.036Z,17.60
2018-05-25T00:31:32.222Z,17.70
2018-05-25T00:32:32.413Z,18.10
2018-05-25T00:33:32.622Z,17.50
2018-05-25T00:34:32.806Z,17.30
2018-05-25T00:35:33.059Z,17.50
2018-05-25T00:36:33.259Z,19.60
2018-05-25T00:37:33.462Z,18.00
2018-05-25T00:38:33.669Z,17.00
2018-05-25T00:39:33.920Z,18.00
2018-05-25T00:40:33.996Z,17.40
2018-05-25T00:41:34.192Z,18.00
2018-05-25T00:42:34.481Z,18.90
2018-05-25T00:43:34.556Z,18.10
2018-05-25T00:44:34.744Z,18.90
2018-05-25T00:45:34.952Z,18.40
2018-05-25T00:46:35.149Z,18.50
2018-05-25T00:47:35.345Z,19.10
2018-05-25T00:48:35.542Z,18.00
2018-05-25T00:49:35.747Z,17.90
2018-05-25T00:50:35.952Z,17.20
2018-05-25T00:51:36.173Z,18.00
2018-05-25T00:52:36.384Z,17.40
2018-05-25T00:53:36.582Z,17.80
2018-05-25T00:54:36.785Z,18.30
2018-05-25T00:55:36.990Z,17.90
2018-05-25T00:56:37.206Z,17.40
2018-05-25T00:57:37.408Z,18.90
2018-05-25T00:58:37.621Z,19.30
2018-05-25T00:59:37.812Z,18.90
2018-05-25T01:00:38.000Z,18.40
2018-05-25T01:01:38.205Z,18.60
2018-05-25T01:02:38.427Z,19.40
2018-05-25T01:03:38.639Z,18.80
2018-05-25T01:04:38.835Z,18.90
2018-05-25T01:05:39.027Z,19.10
2018-05-25T01:06:39.245Z,19.00
2018-05-25T01:07:39.444Z,19.40
2018-05-25T01:08:39.645Z,18.80
2018-05-25T01:11:11.927Z,19.70
2018-05-25T01:12:12.091Z,19.20
2018-05-25T01:13:12.323Z,19.20
2018-05-25T01:14:12.463Z,20.20
2018-05-25T01:15:12.651Z,19.50
2018-05-25T01:16:12.836Z,20.70
2018-05-25T01:17:13.056Z,20.30
2018-05-25T01:18:13.260Z,20.30
2018-05-25T01:19:13.448Z,20.60
2018-05-25T01:21:45.578Z,22.30
2018-05-25T01:22:45.755Z,21.90
2018-05-25T01:23:45.950Z,21.50
2018-05-25T01:24:46.160Z,21.10
2018-05-25T01:25:46.343Z,22.80
2018-05-25T01:26:46.528Z,20.20
2018-05-25T01:27:46.721Z,22.10
2018-05-25T01:28:46.928Z,22.00
2018-05-25T01:29:47.140Z,22.40
2018-05-25T01:30:47.320Z,21.40
2018-05-25T01:31:47.521Z,21.50
2018-05-25T01:32:47.723Z,20.50
2018-05-25T01:33:47.909Z,21.00
2018-05-25T01:34:48.113Z,21.20
2018-05-25T01:35:48.323Z,21.90
2018-05-25T01:36:48.513Z,20.40
2018-05-25T01:37:48.699Z,20.50
2018-05-25T01:38:48.895Z,22.70
2018-05-25T01:39:49.081Z,21.80
2018-05-25T01:40:49.286Z,20.90
2018-05-25T01:41:49.500Z,21.10
2018-05-25T01:42:49.696Z,22.40
2018-05-25T01:43:49.902Z,23.70
2018-05-25T01:44:50.113Z,25.20
2018-05-25T01:45:50.301Z,23.40
2018-05-25T01:46:50.499Z,24.00
2018-05-25T01:47:50.710Z,23.00
2018-05-25T01:48:50.916Z,22.60
2018-05-25T01:49:51.111Z,20.90
2018-05-25T01:50:51.305Z,22.40
2018-05-25T01:51:51.498Z,22.70
2018-05-25T01:52:51.703Z,22.00
2018-05-25T01:53:51.913Z,22.80
2018-05-25T01:54:52.130Z,23.10
2018-05-25T01:55:52.329Z,23.20
2018-05-25T01:56:52.523Z,23.60
2018-05-25T01:57:52.782Z,23.10
2018-05-25T01:58:52.924Z,21.80
2018-05-25T01:59:53.118Z,23.40
2018-05-25T02:00:53.298Z,23.00
2018-05-25T02:01:53.488Z,23.50
2018-05-25T02:02:53.700Z,24.70
2018-05-25T02:03:53.905Z,25.20
2018-05-25T02:04:54.126Z,27.60
2018-05-25T02:05:54.328Z,23.40
2018-05-25T02:06:54.565Z,25.10
2018-05-25T02:07:54.780Z,26.60
2018-05-25T02:10:27.021Z,27.10
2018-05-25T02:11:27.193Z,26.10
2018-05-25T02:12:27.402Z,28.20
2018-05-25T02:13:27.616Z,26.70
2018-05-25T02:15:59.436Z,25.30
2018-05-25T02:16:59.613Z,27.70
2018-05-25T02:17:59.814Z,28.50
2018-05-25T02:19:00.013Z,27.30
2018-05-25T02:20:00.222Z,28.20
2018-05-25T02:21:00.401Z,29.20
2018-05-25T02:22:00.608Z,28.70
2018-05-25T02:23:00.804Z,29.50
2018-05-25T02:24:01.024Z,28.00
2018-05-25T02:25:01.229Z,29.10
2018-05-25T02:26:01.423Z,27.90
2018-05-25T02:27:01.633Z,28.00
2018-05-25T02:28:01.822Z,28.80
2018-05-25T02:29:02.009Z,29.10
2018-05-25T02:30:02.361Z,29.40
2018-05-25T02:31:02.425Z,35.40
2018-05-25T02:32:02.610Z,31.60
2018-05-25T02:33:02.821Z,33.10
2018-05-25T02:34:03.019Z,32.20
2018-05-25T02:35:03.212Z,29.70
2018-05-25T02:36:03.426Z,30.90
2018-05-25T02:37:03.633Z,29.50
2018-05-25T02:38:03.834Z,31.00
2018-05-25T02:39:04.042Z,28.80
2018-05-25T02:40:04.232Z,30.80
2018-05-25T02:41:04.516Z,30.40
2018-05-25T02:42:04.620Z,34.60
2018-05-25T02:43:04.812Z,30.80
2018-05-25T02:44:05.022Z,32.20
2018-05-25T02:45:05.223Z,31.10
2018-05-25T02:46:05.430Z,31.10
2018-05-25T02:47:05.630Z,31.80
2018-05-25T02:48:05.822Z,30.50
2018-05-25T02:49:06.019Z,33.20
2018-05-25T02:50:06.219Z,31.40
2018-05-25T02:51:06.418Z,31.60
2018-05-25T02:52:06.603Z,33.00
2018-05-25T02:53:06.801Z,30.90
2018-05-25T02:54:06.979Z,32.10
2018-05-25T02:55:07.193Z,32.80
2018-05-25T02:56:07.395Z,32.00
2018-05-25T02:57:07.604Z,30.90
2018-05-25T02:58:07.800Z,33.00
2018-05-25T02:59:08.013Z,31.40
2018-05-25T03:00:08.224Z,33.50
2018-05-25T03:01:08.430Z,38.70
2018-05-25T03:02:08.639Z,36.30
2018-05-25T03:03:08.824Z,32.10
2018-05-25T03:04:09.026Z,32.90
2018-05-25T03:05:09.221Z,31.20
2018-05-25T03:06:09.428Z,30.90
2018-05-25T03:07:09.641Z,32.90
2018-05-25T03:08:09.859Z,31.70
2018-05-25T03:09:10.067Z,30.70
2018-05-25T03:10:10.284Z,34.50
2018-05-25T03:11:10.487Z,32.70
2018-05-25T03:12:10.672Z,32.60
2018-05-25T03:13:10.882Z,33.00
2018-05-25T03:14:11.057Z,34.50
2018-05-25T03:15:11.249Z,35.20
2018-05-25T03:17:43.055Z,40.90
2018-05-25T03:18:43.227Z,37.30
2018-05-25T03:19:43.420Z,35.70
2018-05-25T03:20:43.598Z,34.20
2018-05-25T03:21:43.808Z,33.80
2018-05-25T03:22:44.015Z,34.80
2018-05-25T03:23:44.207Z,35.70
2018-05-25T03:24:44.396Z,33.50
2018-05-25T03:25:44.583Z,34.90
2018-05-25T03:26:44.779Z,35.70
2018-05-25T03:27:44.986Z,34.00
2018-05-25T03:28:45.199Z,34.70
2018-05-25T03:29:45.368Z,33.80
2018-05-25T03:30:45.576Z,36.80
2018-05-25T03:31:45.792Z,35.70
2018-05-25T03:32:45.972Z,31.90
2018-05-25T03:33:46.180Z,33.10
2018-05-25T03:34:46.384Z,31.70
2018-05-25T03:37:18.526Z,35.20
2018-05-25T03:38:18.718Z,41.80
2018-05-25T03:39:18.930Z,37.40
2018-05-25T03:40:19.126Z,35.50
2018-05-25T03:41:19.307Z,33.10
2018-05-25T03:42:19.502Z,34.10
2018-05-25T03:43:19.704Z,35.50
2018-05-25T03:44:19.906Z,38.70
2018-05-25T03:45:20.104Z,34.20
2018-05-25T03:46:20.295Z,37.30
2018-05-25T03:47:20.509Z,36.20
2018-05-25T03:48:20.699Z,36.10
2018-05-25T03:49:20.893Z,35.20
2018-05-25T03:50:21.094Z,31.70
2018-05-25T03:51:21.297Z,35.50
2018-05-25T03:52:21.487Z,35.20
2018-05-25T03:53:21.694Z,34.60
2018-05-25T03:54:21.895Z,33.60
2018-05-25T03:55:22.102Z,32.40
2018-05-25T03:56:22.303Z,33.50
2018-05-25T03:57:22.503Z,39.30
2018-05-25T03:58:22.697Z,31.40
2018-05-25T04:00:54.837Z,32.90
2018-05-25T04:01:55.013Z,34.20
2018-05-25T04:02:55.207Z,32.40
2018-05-25T04:03:55.394Z,31.80
2018-05-25T04:04:55.578Z,30.80
2018-05-25T04:05:55.787Z,33.90
2018-05-25T04:06:55.972Z,32.10
2018-05-25T04:07:56.183Z,30.90
2018-05-25T04:08:56.385Z,32.10
2018-05-25T04:09:56.743Z,30.40
2018-05-25T04:10:56.853Z,30.00
2018-05-25T04:11:57.061Z,30.00
2018-05-25T04:14:29.195Z,30.30
2018-05-25T04:15:29.369Z,30.90
2018-05-25T04:16:29.553Z,32.10
2018-05-25T04:17:29.754Z,30.00
2018-05-25T04:18:29.955Z,31.50
2018-05-25T04:21:02.386Z,30.10
2018-05-25T04:22:02.198Z,31.10
2018-05-25T04:23:02.415Z,31.40
2018-05-25T04:25:34.591Z,30.90
2018-05-25T04:26:34.766Z,32.60
2018-05-25T04:27:34.971Z,29.70
2018-05-25T04:28:35.157Z,32.30
2018-05-25T04:29:35.348Z,32.50
2018-05-25T04:30:35.530Z,30.60
2018-05-25T04:31:35.747Z,32.70
2018-05-25T04:32:35.940Z,31.00
2018-05-25T04:33:36.154Z,30.90
2018-05-25T04:34:36.353Z,31.40
2018-05-25T04:35:36.653Z,30.40
2018-05-25T04:36:36.773Z,30.60
2018-05-25T04:37:36.987Z,32.60
2018-05-25T04:38:37.210Z,30.80
2018-05-25T04:41:09.047Z,29.40
2018-05-25T04:42:09.222Z,30.70
2018-05-25T04:44:41.331Z,28.50
2018-05-25T04:45:41.514Z,29.50
2018-05-25T04:48:13.812Z,28.50
2018-05-25T04:49:13.981Z,30.80
2018-05-25T04:50:14.176Z,29.90
2018-05-25T04:51:14.362Z,30.60
2018-05-25T04:52:14.550Z,30.50
2018-05-25T04:53:14.825Z,31.10
2018-05-25T04:54:14.964Z,30.30
2018-05-25T04:55:15.182Z,28.60
2018-05-25T04:56:15.374Z,28.10
2018-05-25T04:57:15.584Z,29.10
2018-05-25T04:58:15.794Z,29.40
2018-05-25T04:59:15.993Z,28.30
2018-05-25T05:00:16.194Z,27.60
2018-05-25T05:01:16.381Z,28.60
2018-05-25T05:02:16.576Z,29.60
2018-05-25T05:03:16.762Z,28.40
2018-05-25T05:04:16.966Z,30.10
2018-05-25T05:05:17.157Z,29.20
2018-05-25T05:06:17.350Z,29.60
2018-05-25T05:07:17.550Z,28.80
2018-05-25T05:08:17.765Z,27.60
2018-05-25T05:09:17.954Z,28.00
2018-05-25T05:10:18.167Z,31.10
2018-05-25T05:11:18.381Z,30.90
2018-05-25T05:12:18.595Z,27.50
2018-05-25T05:13:18.807Z,25.40
2018-05-25T05:14:18.995Z,25.70
2018-05-25T05:15:19.194Z,26.30
2018-05-25T05:16:19.386Z,26.90
2018-05-25T05:17:19.570Z,24.80
2018-05-25T05:18:19.791Z,26.40
2018-05-25T05:19:20.017Z,26.40
2018-05-25T05:20:20.218Z,26.30
2018-05-25T05:21:20.421Z,26.20
2018-05-25T05:22:20.629Z,24.70
2018-05-25T05:23:20.832Z,25.30
2018-05-25T05:24:21.021Z,26.00
2018-05-25T05:25:21.242Z,24.40
2018-05-25T05:26:21.455Z,24.30
2018-05-25T05:27:21.656Z,25.10
2018-05-25T05:29:53.478Z,23.80
2018-05-25T05:30:53.653Z,24.70
2018-05-25T05:31:53.851Z,24.20
2018-05-25T05:32:54.080Z,23.90
2018-05-25T05:33:54.287Z,24.20
2018-05-25T05:34:54.475Z,22.50
2018-05-25T05:35:54.693Z,25.30
2018-05-25T05:36:54.883Z,24.60
2018-05-25T05:37:55.072Z,24.60
2018-05-25T05:38:55.263Z,24.70
2018-05-25T05:39:55.452Z,24.10
2018-05-25T05:40:55.706Z,24.20
2018-05-25T05:41:55.863Z,23.40
2018-05-25T05:42:56.072Z,23.70
2018-05-25T05:43:56.280Z,22.60
2018-05-25T05:44:56.479Z,23.70
2018-05-25T05:45:56.662Z,21.70
2018-05-25T05:46:56.863Z,22.10
2018-05-25T05:47:57.065Z,22.50
2018-05-25T05:48:57.274Z,23.50
2018-05-25T05:49:57.485Z,22.20
2018-05-25T05:50:57.733Z,21.70
2018-05-25T05:51:57.890Z,21.70
2018-05-25T05:52:58.114Z,21.40
2018-05-25T05:53:58.348Z,21.40
2018-05-25T05:54:58.533Z,21.70
2018-05-25T05:55:58.744Z,20.80
2018-05-25T05:56:58.959Z,22.60
2018-05-25T05:57:59.154Z,22.50
2018-05-25T05:58:59.342Z,20.80
2018-05-25T05:59:59.553Z,22.10
2018-05-25T06:00:59.744Z,21.90
2018-05-25T06:01:59.928Z,20.90
2018-05-25T06:03:00.140Z,22.40
2018-05-25T06:04:00.329Z,21.10
2018-05-25T06:05:00.548Z,20.50
2018-05-25T06:06:00.747Z,19.60
2018-05-25T06:07:00.987Z,20.20
2018-05-25T06:08:01.185Z,21.50
2018-05-25T06:09:01.373Z,19.80
2018-05-25T06:10:01.578Z,18.60
2018-05-25T06:11:01.767Z,20.20
2018-05-25T06:12:01.979Z,19.70
2018-05-25T06:13:02.193Z,19.10
2018-05-25T06:14:02.403Z,19.30
2018-05-25T06:15:02.739Z,19.40
2018-05-25T06:17:34.932Z,19.60
2018-05-25T06:18:34.995Z,18.20
2018-05-25T06:19:35.193Z,17.40
2018-05-25T06:22:07.018Z,17.10
2018-05-25T06:23:07.190Z,17.10
2018-05-25T06:24:07.390Z,17.20
2018-05-25T06:25:07.564Z,16.90
2018-05-25T06:26:07.771Z,16.10
2018-05-25T06:27:07.992Z,16.90
2018-05-25T06:28:08.175Z,17.50
2018-05-25T06:29:08.389Z,16.40
2018-05-25T06:30:08.585Z,16.50
2018-05-25T06:31:08.775Z,16.90
2018-05-25T06:32:08.967Z,15.60
2018-05-25T06:33:09.181Z,15.90
2018-05-25T06:34:09.418Z,16.00
2018-05-25T06:35:09.624Z,16.40
2018-05-25T06:36:09.817Z,15.30
2018-05-25T06:37:10.035Z,14.80
2018-05-25T06:38:10.225Z,15.70
2018-05-25T06:39:10.423Z,16.60
2018-05-25T06:40:10.621Z,17.40
2018-05-25T06:41:10.828Z,14.80
2018-05-25T06:42:11.035Z,14.80
2018-05-25T06:43:11.223Z,14.80
2018-05-25T06:44:11.449Z,14.60
2018-05-25T06:45:11.659Z,15.60
2018-05-25T06:46:11.856Z,13.50
2018-05-25T06:47:12.044Z,13.00
2018-05-25T06:48:12.237Z,12.90
2018-05-25T06:49:12.447Z,12.60
2018-05-25T06:50:12.649Z,12.50
2018-05-25T06:51:12.918Z,12.50
2018-05-25T06:52:13.102Z,11.10
2018-05-25T06:53:13.287Z,10.70
2018-05-25T06:54:13.480Z,9.80
2018-05-25T06:55:13.684Z,10.10
2018-05-25T06:56:13.894Z,9.60
2018-05-25T06:57:14.100Z,10.00
2018-05-25T06:58:14.308Z,8.60
2018-05-25T06:59:14.677Z,8.50
2018-05-25T07:00:14.767Z,9.00
2018-05-25T07:01:14.978Z,9.70
2018-05-25T07:02:15.165Z,7.90
2018-05-25T07:03:15.385Z,8.20
2018-05-25T07:04:15.575Z,8.70
2018-05-25T07:05:15.807Z,8.10
2018-05-25T07:06:16.007Z,7.70
2018-05-25T07:07:16.227Z,7.90
2018-05-25T07:08:16.439Z,7.50
2018-05-25T07:09:16.622Z,7.60
2018-05-25T07:10:16.849Z,7.70
2018-05-25T07:11:17.062Z,7.30
2018-05-25T07:12:17.269Z,7.20
2018-05-25T07:13:17.478Z,8.10
2018-05-25T07:14:17.685Z,7.50
2018-05-25T07:15:17.913Z,6.70
2018-05-25T07:16:18.130Z,6.90
2018-05-25T07:17:18.355Z,7.70
2018-05-25T07:18:18.571Z,7.90
2018-05-25T07:19:18.784Z,7.90
2018-05-25T07:20:18.987Z,8.10
2018-05-25T07:21:19.208Z,8.30
2018-05-25T07:22:19.423Z,9.30
2018-05-25T07:23:19.649Z,8.70
2018-05-25T07:24:19.845Z,8.00
2018-05-25T07:25:20.052Z,11.70
2018-05-25T07:26:20.266Z,8.10
2018-05-25T07:27:20.484Z,7.90
2018-05-25T07:28:20.698Z,7.70
2018-05-25T07:29:21.008Z,7.30
2018-05-25T07:30:21.084Z,8.10
2018-05-25T07:31:21.293Z,10.60
2018-05-25T07:32:21.492Z,6.60
2018-05-25T07:33:21.750Z,7.10
2018-05-25T07:34:21.925Z,7.60
2018-05-25T07:35:22.120Z,7.10
2018-05-25T07:36:22.342Z,6.60
2018-05-25T07:37:22.554Z,6.90
2018-05-25T07:38:22.767Z,6.10
2018-05-25T07:39:22.988Z,7.50
2018-05-25T07:40:23.211Z,7.10
2018-05-25T07:41:23.410Z,6.80
2018-05-25T07:42:23.613Z,6.70
2018-05-25T07:43:23.825Z,6.90
2018-05-25T07:44:24.040Z,6.80
2018-05-25T07:45:24.244Z,6.50
2018-05-25T07:46:24.458Z,7.10
2018-05-25T07:47:24.680Z,6.80
2018-05-25T07:48:24.985Z,7.60
2018-05-25T07:49:25.072Z,6.70
2018-05-25T07:50:25.282Z,6.40
2018-05-25T07:51:25.505Z,7.00
2018-05-25T07:52:25.709Z,8.20
2018-05-25T07:53:25.935Z,6.50
2018-05-25T07:54:26.175Z,6.50
2018-05-25T07:55:26.381Z,7.00
2018-05-25T07:57:58.585Z,7.00
2018-05-25T07:58:58.772Z,6.60
2018-05-25T07:59:58.989Z,6.00
2018-05-25T08:00:59.216Z,7.80
2018-05-25T08:01:59.413Z,7.10
2018-05-25T08:02:59.621Z,7.30
2018-05-25T08:03:59.822Z,6.80
2018-05-25T08:05:00.023Z,6.60
2018-05-25T08:06:00.326Z,6.40
2018-05-25T08:07:00.407Z,6.90
2018-05-25T08:08:00.818Z,7.10
2018-05-25T08:09:00.812Z,6.90
2018-05-25T08:10:01.007Z,7.20
2018-05-25T08:11:01.218Z,7.70
2018-05-25T08:12:01.474Z,6.60
2018-05-25T08:13:01.660Z,7.40
2018-05-25T08:14:01.855Z,7.30
2018-05-25T08:15:02.082Z,6.90
2018-05-25T08:16:02.312Z,6.20
2018-05-25T08:17:02.618Z,6.80
2018-05-25T08:18:02.715Z,6.40
2018-05-25T08:19:02.938Z,6.10
2018-05-25T08:20:03.161Z,7.10
2018-05-25T08:21:03.383Z,6.00
2018-05-25T08:22:03.641Z,5.80
2018-05-25T08:23:03.803Z,6.00
2018-05-25T08:24:04.019Z,5.50
2018-05-25T08:25:04.246Z,6.30
2018-05-25T08:27:36.099Z,6.40
2018-05-25T08:28:36.273Z,7.90
2018-05-25T08:29:36.551Z,6.90
2018-05-25T08:30:36.645Z,7.70
2018-05-25T08:31:36.864Z,9.40
2018-05-25T08:32:37.077Z,8.50
2018-05-25T08:33:37.319Z,7.50
2018-05-25T08:34:37.532Z,8.00
2018-05-25T08:35:37.729Z,10.10
2018-05-25T08:36:37.949Z,7.70
2018-05-25T08:37:38.256Z,8.30
2018-05-25T08:38:38.334Z,7.40
2018-05-25T08:39:38.526Z,7.70
2018-05-25T08:40:38.758Z,7.80
2018-05-25T08:41:38.950Z,10.10
2018-05-25T08:42:39.154Z,8.10
2018-05-25T08:43:39.381Z,7.20
2018-05-25T08:44:39.605Z,8.10
2018-05-25T08:45:39.802Z,6.60
2018-05-25T08:46:39.997Z,6.40
2018-05-25T08:47:40.199Z,6.10
2018-05-25T08:48:40.410Z,6.90
2018-05-25T08:49:40.617Z,6.70
2018-05-25T08:50:40.830Z,6.30
2018-05-25T08:51:41.038Z,7.00
2018-05-25T08:52:41.253Z,6.60
2018-05-25T08:53:41.553Z,6.90
2018-05-25T08:54:41.697Z,6.80
2018-05-25T08:55:41.901Z,6.90
2018-05-25T08:56:42.100Z,6.40
2018-05-25T08:57:42.307Z,7.50
2018-05-25T08:58:42.526Z,7.40
2018-05-25T08:59:42.815Z,8.10
2018-05-25T09:00:42.910Z,8.80
2018-05-25T09:01:43.124Z,7.80
2018-05-25T09:02:43.336Z,8.20
2018-05-25T09:03:43.556Z,8.20
2018-05-25T09:04:43.755Z,8.20
2018-05-25T09:05:43.965Z,7.30
2018-05-25T09:06:44.243Z,9.10
2018-05-25T09:07:44.393Z,8.20
2018-05-25T09:10:17.307Z,8.80
2018-05-25T09:11:16.734Z,13.40
2018-05-25T09:12:16.973Z,12.80
2018-05-25T09:13:17.134Z,7.90
2018-05-25T09:15:50.049Z,8.60
2018-05-25T09:16:49.602Z,8.90
2018-05-25T09:17:49.796Z,8.40
2018-05-25T09:18:49.992Z,9.10
2018-05-25T09:19:50.194Z,7.90
2018-05-25T09:20:50.390Z,8.60
2018-05-25T09:21:50.616Z,9.00
2018-05-25T09:22:50.798Z,7.90
2018-05-25T09:23:51.079Z,9.00
2018-05-25T09:24:51.172Z,8.10
2018-05-25T09:25:51.373Z,8.40
2018-05-25T09:26:51.568Z,8.00
2018-05-25T09:27:51.791Z,7.90
2018-05-25T09:28:52.009Z,8.30
2018-05-25T09:29:52.217Z,7.80
2018-05-25T09:30:52.422Z,7.00
2018-05-25T09:31:52.615Z,7.30
2018-05-25T09:32:52.808Z,7.10
2018-05-25T09:33:53.015Z,7.50
2018-05-25T09:34:53.225Z,7.20
2018-05-25T09:35:53.423Z,7.10
2018-05-25T09:36:53.619Z,6.90
2018-05-25T09:37:53.826Z,6.30
2018-05-25T09:38:54.032Z,7.90
2018-05-25T09:39:54.244Z,7.80
2018-05-25T09:40:54.471Z,6.80
2018-05-25T09:41:54.669Z,6.70
2018-05-25T09:42:54.877Z,6.40
2018-05-25T09:45:27.041Z,6.70
2018-05-25T09:46:27.221Z,7.00
2018-05-25T09:47:27.435Z,8.10
2018-05-25T09:48:27.654Z,8.20
2018-05-25T09:49:27.875Z,7.70
2018-05-25T09:50:28.101Z,6.90
2018-05-25T09:51:28.305Z,6.20
2018-05-25T09:52:28.515Z,6.30
2018-05-25T09:53:28.730Z,6.60
2018-05-25T09:54:28.961Z,5.50
2018-05-25T09:55:29.172Z,6.40
2018-05-25T09:56:29.369Z,5.10
2018-05-25T09:57:29.562Z,5.60
2018-05-25T09:58:29.776Z,6.10
2018-05-25T10:01:02.645Z,6.20
2018-05-25T10:02:02.701Z,6.20
2018-05-25T10:03:02.910Z,7.40
2018-05-25T10:04:03.120Z,6.30
2018-05-25T10:05:03.334Z,5.70
2018-05-25T10:06:03.528Z,6.10
2018-05-25T10:07:03.733Z,5.80
2018-05-25T10:08:03.935Z,6.20
2018-05-25T10:09:04.139Z,5.90
2018-05-25T10:10:04.355Z,6.60
2018-05-25T10:12:36.198Z,5.90
2018-05-25T10:13:36.382Z,8.10
2018-05-25T10:14:36.591Z,5.80
2018-05-25T10:15:36.782Z,5.70
2018-05-25T10:16:36.992Z,6.10
2018-05-25T10:17:37.170Z,6.20
2018-05-25T10:18:37.378Z,6.10
2018-05-25T10:19:37.579Z,6.60
2018-05-25T10:20:37.928Z,6.50
2018-05-25T10:21:38.016Z,7.40
2018-05-25T10:22:38.223Z,5.90
2018-05-25T10:23:38.450Z,5.90
2018-05-25T10:24:38.783Z,5.90
2018-05-25T10:25:38.866Z,6.10
2018-05-25T10:26:39.091Z,7.90
2018-05-25T10:27:39.299Z,5.70
2018-05-25T10:28:39.516Z,7.40
2018-05-25T10:29:39.720Z,7.60
2018-05-25T10:30:39.948Z,5.80
2018-05-25T10:31:40.139Z,5.50
2018-05-25T10:32:40.332Z,5.80
2018-05-25T10:33:40.532Z,5.70
2018-05-25T10:34:40.767Z,5.40
2018-05-25T10:35:40.961Z,5.70
2018-05-25T10:36:41.176Z,6.00
2018-05-25T10:37:41.380Z,7.20
2018-05-25T10:38:41.600Z,8.90
2018-05-25T10:39:41.805Z,6.40
2018-05-25T10:40:42.012Z,6.80
2018-05-25T10:41:42.232Z,5.50
2018-05-25T10:42:42.512Z,5.60
2018-05-25T20:42:37.251Z,5.80
2018-05-25T20:43:37.427Z,12.40
2018-05-25T20:46:09.617Z,13.20
2018-05-25T20:47:09.793Z,13.40
2018-05-25T20:48:10.022Z,12.20
2018-05-25T20:49:10.233Z,12.20
2018-05-25T20:50:10.424Z,12.20
2018-05-25T20:51:10.736Z,12.10
2018-05-25T20:52:10.818Z,12.00
2018-05-25T20:53:11.027Z,12.20
2018-05-25T20:54:11.243Z,12.50
2018-05-25T20:55:11.467Z,12.00
2018-05-25T20:56:11.677Z,11.60
2018-05-25T20:57:11.886Z,11.50
2018-05-25T20:58:12.085Z,12.10
2018-05-25T20:59:12.279Z,11.40
2018-05-25T21:00:12.492Z,12.40
2018-05-25T21:01:12.705Z,11.70
2018-05-25T21:02:12.898Z,12.00
2018-05-25T21:03:13.103Z,11.80
2018-05-25T21:04:13.341Z,13.20
2018-05-25T21:05:13.535Z,12.00
2018-05-25T21:06:13.724Z,12.50
2018-05-25T21:07:13.943Z,11.70
2018-05-25T21:08:14.138Z,12.70
2018-05-25T21:09:14.385Z,12.20
2018-05-25T21:10:14.586Z,11.90
2018-05-25T21:11:14.772Z,12.60
2018-05-25T21:12:15.017Z,12.90
2018-05-25T21:13:15.173Z,12.80
2018-05-25T21:14:15.369Z,12.90
2018-05-25T21:15:15.578Z,16.90
2018-05-25T21:16:15.793Z,15.20
2018-05-25T21:17:16.009Z,13.60
2018-05-25T21:19:48.262Z,13.60
2018-05-25T21:20:48.446Z,13.20
2018-05-25T21:21:48.691Z,13.80
2018-05-25T21:22:48.850Z,16.20
2018-05-25T21:23:49.042Z,14.90
2018-05-25T21:24:49.269Z,15.80
2018-05-25T21:25:49.478Z,15.60
2018-05-25T21:26:49.691Z,15.90
2018-05-25T21:27:49.897Z,14.70
2018-05-25T21:28:50.094Z,12.50
2018-05-25T21:31:22.260Z,13.70
2018-05-25T21:32:22.487Z,14.20
2018-05-25T21:33:22.639Z,14.70
2018-05-25T21:34:22.862Z,14.70
2018-05-25T21:35:23.049Z,14.50
2018-05-25T21:36:23.263Z,14.60
2018-05-25T21:37:23.452Z,14.20
2018-05-25T21:38:23.678Z,14.50
2018-05-25T21:39:23.883Z,13.90
2018-05-25T21:40:24.076Z,14.40
2018-05-25T21:41:24.272Z,15.60
2018-05-25T21:42:24.470Z,14.90
2018-05-25T21:43:24.671Z,15.60
2018-05-25T21:44:24.978Z,14.30
2018-05-25T21:45:25.051Z,15.40
2018-05-25T21:46:25.261Z,15.90
2018-05-25T21:47:25.470Z,16.70
2018-05-25T21:48:25.690Z,15.40
2018-05-25T21:49:25.878Z,15.80
2018-05-25T21:50:26.090Z,17.10
2018-05-25T21:51:26.302Z,15.60
2018-05-25T21:52:26.510Z,17.60
2018-05-25T21:53:26.735Z,17.40
2018-05-25T21:54:26.941Z,15.80
2018-05-25T21:56:59.085Z,16.50
2018-05-25T21:57:59.272Z,16.80
2018-05-25T21:58:59.478Z,16.10
2018-05-25T21:59:59.693Z,16.30
2018-05-25T22:00:59.877Z,16.40
2018-05-25T22:02:00.066Z,17.20
2018-05-25T22:03:00.278Z,16.60
2018-05-25T22:04:00.489Z,16.60
2018-05-25T22:05:00.688Z,16.50
2018-05-25T22:06:00.879Z,16.90
2018-05-25T22:07:01.090Z,16.90
2018-05-25T22:08:01.305Z,15.40
2018-05-25T22:09:01.514Z,16.10
2018-05-25T22:10:01.702Z,17.00
2018-05-25T22:11:01.915Z,15.30
2018-05-25T22:12:02.120Z,17.10
2018-05-25T22:13:02.347Z,17.50
2018-05-25T22:14:02.530Z,16.40
2018-05-25T22:15:02.732Z,17.50
2018-05-25T22:16:02.932Z,17.20
2018-05-25T22:17:03.301Z,17.10
2018-05-25T22:18:03.277Z,16.90
2018-05-25T22:19:03.489Z,16.50
2018-05-25T22:20:03.702Z,17.70
2018-05-25T22:21:03.910Z,18.30
2018-05-25T22:22:04.110Z,16.70
2018-05-25T22:23:04.287Z,18.10
2018-05-25T22:24:04.479Z,18.30
2018-05-25T22:25:04.690Z,18.50
2018-05-25T22:26:04.902Z,18.60
2018-05-25T22:27:05.103Z,19.30
2018-05-25T22:28:05.312Z,18.10
2018-05-25T22:29:05.511Z,17.60
2018-05-25T22:30:05.696Z,18.30
2018-05-25T22:32:38.079Z,18.30
2018-05-25T22:33:38.209Z,18.40
2018-05-25T22:34:38.416Z,18.00
2018-05-25T22:35:38.605Z,18.90
2018-05-25T22:36:38.796Z,18.30
2018-05-25T22:37:39.011Z,17.00
2018-05-25T22:38:39.211Z,16.60
2018-05-25T22:39:39.400Z,19.10
2018-05-25T22:40:39.609Z,18.60
2018-05-25T22:41:39.812Z,18.50
2018-05-25T22:42:40.020Z,18.30
2018-05-25T22:43:40.206Z,17.50
2018-05-25T22:44:40.409Z,17.70
2018-05-25T22:45:40.616Z,16.60
2018-05-25T22:46:40.828Z,18.40
2018-05-25T22:47:41.008Z,17.80
2018-05-25T22:48:41.200Z,18.60
2018-05-25T22:49:41.414Z,18.60
2018-05-25T22:52:13.571Z,18.70
2018-05-25T22:53:13.766Z,18.10
2018-05-25T22:54:13.955Z,18.50
2018-05-25T22:55:14.139Z,18.10
2018-05-25T22:56:14.335Z,18.60
2018-05-25T22:57:14.545Z,17.60
2018-05-25T22:58:14.737Z,18.40
2018-05-25T22:59:14.944Z,20.00
2018-05-25T23:00:15.138Z,18.60
2018-05-25T23:01:15.326Z,16.70
2018-05-25T23:02:15.538Z,18.30
2018-05-25T23:03:15.752Z,19.40
2018-05-25T23:04:15.965Z,20.80
2018-05-25T23:05:16.171Z,19.60
2018-05-25T23:06:16.391Z,19.50
2018-05-25T23:07:16.570Z,21.10
2018-05-25T23:08:16.772Z,21.30
2018-05-25T23:09:17.049Z,20.60
2018-05-25T23:10:17.130Z,21.60
2018-05-25T23:11:17.325Z,20.30
2018-05-25T23:12:17.530Z,21.80
2018-05-25T23:14:49.881Z,22.00
2018-05-25T23:15:50.058Z,21.10
2018-05-25T23:16:50.248Z,22.10
2018-05-25T23:17:50.444Z,21.20
2018-05-25T23:18:50.621Z,21.30
2018-05-25T23:19:50.815Z,21.10
2018-05-25T23:20:51.020Z,20.40
2018-05-25T23:21:51.200Z,19.30
2018-05-25T23:22:51.390Z,20.50
2018-05-25T23:23:51.591Z,20.80
2018-05-25T23:24:51.803Z,22.00
2018-05-25T23:25:51.993Z,22.40
2018-05-25T23:26:52.179Z,22.00
2018-05-25T23:27:52.390Z,22.30
2018-05-25T23:28:52.610Z,22.30
2018-05-25T23:29:52.802Z,22.60
2018-05-25T23:30:53.013Z,21.40
2018-05-25T23:31:53.210Z,22.50
2018-05-25T23:32:53.423Z,19.50
2018-05-25T23:33:53.620Z,21.60
2018-05-25T23:34:53.856Z,20.10
2018-05-25T23:35:54.036Z,20.30
2018-05-25T23:36:54.229Z,20.70
2018-05-25T23:37:54.430Z,21.80
2018-05-25T23:38:54.649Z,22.10
2018-05-25T23:39:54.862Z,22.80
2018-05-25T23:40:55.116Z,21.70
2018-05-25T23:41:55.315Z,22.50
2018-05-25T23:42:55.535Z,23.70
2018-05-25T23:43:55.764Z,23.50
2018-05-25T23:44:55.975Z,24.90
2018-05-25T23:45:56.171Z,24.90
2018-05-25T23:46:56.354Z,27.30
2018-05-25T23:47:56.546Z,26.50
2018-05-25T23:48:56.764Z,24.90